createdAt,value
2022-12-23T00:00:08.314Z,13.50
2022-12-23T00:03:14.951Z,13.80
2022-12-23T00:06:01.662Z,12.00
2022-12-23T00:08:48.211Z,12.10
2022-12-23T00:11:34.663Z,11.60
2022-12-23T00:14:39.671Z,17.30
2022-12-23T00:17:26.187Z,12.70
2022-12-23T00:20:13.838Z,12.20
2022-12-23T00:23:06.378Z,13.10
2022-12-23T00:25:52.870Z,13.80
2022-12-23T00:28:39.294Z,16.10
2022-12-23T00:31:25.973Z,22.30
2022-12-23T00:34:13.083Z,22.30
2022-12-23T00:36:59.495Z,17.90
2022-12-23T00:40:06.748Z,18.00
2022-12-23T00:42:53.662Z,28.40
2022-12-23T00:45:40.287Z,21.30
2022-12-23T00:48:45.347Z,19.60
2022-12-23T00:51:32.121Z,16.70
2022-12-23T00:54:18.455Z,18.30
2022-12-23T00:57:05.013Z,23.60
2022-12-23T00:59:51.249Z,39.70
2022-12-23T01:02:56.806Z,29.60
2022-12-23T01:05:43.409Z,27.60
2022-12-23T01:08:29.793Z,26.30
2022-12-23T01:11:16.234Z,18.90
2022-12-23T01:14:02.467Z,17.30
2022-12-23T01:16:49.065Z,38.50
2022-12-23T01:19:35.528Z,26.10
2022-12-23T01:22:21.799Z,20.80
2022-12-23T01:25:08.408Z,11.90
2022-12-23T01:27:54.534Z,10.60
2022-12-23T01:30:40.863Z,14.10
2022-12-23T01:33:27.344Z,13.60
2022-12-23T01:36:13.742Z,11.60
2022-12-23T01:39:00.170Z,5.80
2022-12-23T01:42:05.050Z,10.50
2022-12-23T01:45:01.409Z,9.80
2022-12-23T01:50:53.429Z,15.20
2022-12-23T01:53:45.401Z,17.60
2022-12-23T01:56:38.889Z,17.30
2022-12-23T01:59:44.046Z,11.80
2022-12-23T02:02:49.506Z,12.70
2022-12-23T02:05:35.687Z,14.30
2022-12-23T02:08:40.654Z,11.40
2022-12-23T02:11:51.476Z,15.00
2022-12-23T02:15:05.538Z,13.00
2022-12-23T02:21:05.986Z,9.20
2022-12-23T02:24:25.624Z,9.60
2022-12-23T02:27:22.547Z,9.10
2022-12-23T02:30:30.205Z,9.30
2022-12-23T02:33:57.869Z,6.70
2022-12-23T02:36:56.309Z,9.40
2022-12-23T02:39:47.108Z,8.70
2022-12-23T02:42:43.496Z,7.40
2022-12-23T02:45:29.618Z,9.60
2022-12-23T02:48:34.503Z,9.40
2022-12-23T02:51:22.333Z,8.70
2022-12-23T02:54:11.472Z,7.80
2022-12-23T02:56:58.432Z,8.20
2022-12-23T02:59:46.687Z,7.90
2022-12-23T03:02:34.395Z,9.00
2022-12-23T03:05:27.084Z,9.50
2022-12-23T03:08:18.995Z,8.60
2022-12-23T03:11:06.326Z,9.70
2022-12-23T03:14:07.020Z,9.80
2022-12-23T03:17:20.928Z,13.00
2022-12-23T03:20:17.086Z,12.30
2022-12-23T03:23:19.202Z,10.10
2022-12-23T03:26:16.430Z,10.20
2022-12-23T03:29:10.219Z,9.80
2022-12-23T03:31:58.324Z,8.70
2022-12-23T03:34:46.502Z,10.80
2022-12-23T03:37:33.963Z,9.20
2022-12-23T03:40:23.396Z,9.00
2022-12-23T03:43:30.974Z,7.50
2022-12-23T03:46:19.701Z,10.00
2022-12-23T03:49:08.982Z,8.70
2022-12-23T03:51:58.714Z,9.40
2022-12-23T03:54:55.575Z,6.50
2022-12-23T03:57:45.042Z,10.30
2022-12-23T04:00:34.995Z,10.40
2022-12-23T04:03:34.638Z,9.90
2022-12-23T04:06:21.019Z,8.40
2022-12-23T04:09:07.004Z,7.90
2022-12-23T04:11:53.692Z,8.50
2022-12-23T04:14:45.622Z,5.10
2022-12-23T04:17:32.872Z,9.00
2022-12-23T04:20:19.693Z,9.90
2022-12-23T04:23:06.033Z,11.00
2022-12-23T04:25:52.800Z,8.90
2022-12-23T04:28:38.830Z,8.40
2022-12-23T04:31:25.459Z,10.20
2022-12-23T04:34:11.795Z,9.20
2022-12-23T04:36:57.988Z,8.80
2022-12-23T04:39:44.406Z,9.00
2022-12-23T04:42:30.980Z,5.40
2022-12-23T04:45:17.410Z,8.00
2022-12-23T04:48:03.713Z,8.50
2022-12-23T04:50:50.226Z,5.80
2022-12-23T04:53:37.112Z,7.70
2022-12-23T04:56:23.421Z,9.70
2022-12-23T04:59:10.553Z,7.20
2022-12-23T05:01:58.011Z,9.30
2022-12-23T05:04:44.621Z,11.20
2022-12-23T05:07:31.270Z,8.20
2022-12-23T05:10:17.576Z,8.70
2022-12-23T05:13:04.040Z,10.10
2022-12-23T05:15:50.986Z,6.20
2022-12-23T05:18:37.525Z,6.30
2022-12-23T05:21:23.875Z,9.60
2022-12-23T05:24:10.177Z,10.70
2022-12-23T05:27:00.048Z,9.80
2022-12-23T05:29:46.969Z,7.80
2022-12-23T05:32:33.492Z,9.20
2022-12-23T05:35:19.962Z,8.70
2022-12-23T05:38:06.388Z,10.10
2022-12-23T05:40:52.523Z,8.30
2022-12-23T05:43:38.855Z,11.10
2022-12-23T05:46:27.046Z,10.90
2022-12-23T05:49:13.858Z,9.10
2022-12-23T05:52:00.444Z,9.10
2022-12-23T05:54:47.126Z,10.80
2022-12-23T05:57:33.692Z,7.50
2022-12-23T06:00:20.610Z,8.40
2022-12-23T06:03:07.318Z,11.30
2022-12-23T06:05:54.600Z,9.90
2022-12-23T06:08:40.972Z,9.50
2022-12-23T06:11:27.910Z,10.90
2022-12-23T06:14:14.434Z,6.80
2022-12-23T06:17:00.647Z,10.30
2022-12-23T06:19:47.496Z,9.40
2022-12-23T06:22:33.959Z,10.80
2022-12-23T06:25:20.254Z,10.40
2022-12-23T06:28:08.061Z,11.50
2022-12-23T06:30:57.408Z,14.40
2022-12-23T06:33:44.240Z,12.80
2022-12-23T06:36:30.554Z,10.00
2022-12-23T06:39:16.812Z,8.20
2022-12-23T06:42:03.320Z,11.30
2022-12-23T06:44:49.905Z,5.60
2022-12-23T06:47:36.585Z,7.30
2022-12-23T06:50:23.006Z,11.20
2022-12-23T06:53:09.395Z,10.50
2022-12-23T06:56:01.850Z,10.30
2022-12-23T06:58:48.518Z,9.30
2022-12-23T07:01:34.724Z,11.20
2022-12-23T07:04:21.487Z,8.30
2022-12-23T07:07:07.988Z,7.70
2022-12-23T07:09:54.468Z,5.90
2022-12-23T07:12:44.787Z,8.40
2022-12-23T07:15:33.532Z,8.60
2022-12-23T07:18:22.021Z,9.60
2022-12-23T07:21:16.317Z,8.50
2022-12-23T07:24:07.244Z,11.30
2022-12-23T07:26:55.916Z,10.70
2022-12-23T07:29:42.463Z,10.70
2022-12-23T07:32:28.997Z,11.60
2022-12-23T07:35:15.395Z,9.40
2022-12-23T07:38:01.739Z,6.10
2022-12-23T07:40:49.127Z,6.80
2022-12-23T07:43:35.351Z,10.40
2022-12-23T07:46:21.628Z,8.50
2022-12-23T07:49:08.295Z,9.90
2022-12-23T07:51:54.513Z,13.20
2022-12-23T07:54:40.823Z,7.30
2022-12-23T07:57:27.279Z,7.20
2022-12-23T08:00:14.291Z,6.20
2022-12-23T08:03:00.896Z,5.50
2022-12-23T08:05:47.568Z,4.60
2022-12-23T08:08:33.975Z,4.10
2022-12-23T08:11:20.154Z,19.00
2022-12-23T08:14:07.111Z,6.60
2022-12-23T08:16:53.505Z,6.50
2022-12-23T08:19:39.823Z,6.50
2022-12-23T08:22:26.059Z,5.20
2022-12-23T08:25:12.591Z,4.90
2022-12-23T08:27:59.082Z,4.30
2022-12-23T08:30:45.810Z,4.90
2022-12-23T08:33:32.748Z,5.90
2022-12-23T08:36:23.930Z,4.20
2022-12-23T08:39:10.990Z,3.80
2022-12-23T08:41:57.096Z,4.20
2022-12-23T08:44:43.348Z,2.60
2022-12-23T08:47:29.666Z,2.40
2022-12-23T08:50:15.918Z,5.20
2022-12-23T08:53:02.159Z,7.20
2022-12-23T08:55:48.470Z,6.10
2022-12-23T08:58:38.738Z,6.80
2022-12-23T09:01:26.817Z,10.60
2022-12-23T09:04:13.241Z,4.40
2022-12-23T09:06:59.564Z,7.20
2022-12-23T09:09:45.841Z,6.10
2022-12-23T09:12:32.282Z,9.30
2022-12-23T09:15:18.839Z,10.90
2022-12-23T09:18:05.991Z,4.90
2022-12-23T09:21:03.099Z,7.10
2022-12-23T09:23:49.694Z,5.40
2022-12-23T09:26:36.211Z,8.60
2022-12-23T09:29:23.198Z,6.90
2022-12-23T09:32:09.727Z,5.10
2022-12-23T09:34:57.508Z,1.30
2022-12-23T09:37:44.237Z,5.00
2022-12-23T09:40:32.397Z,4.90
2022-12-23T09:43:34.812Z,4.80
2022-12-23T09:46:25.539Z,7.50
2022-12-23T09:49:13.157Z,4.90
2022-12-23T09:52:03.984Z,3.90
2022-12-23T09:54:52.792Z,3.90
2022-12-23T09:58:01.118Z,2.10
2022-12-23T10:00:56.976Z,2.70
2022-12-23T10:04:15.287Z,5.10
2022-12-23T10:07:04.303Z,4.10
2022-12-23T10:09:51.423Z,5.00
2022-12-23T10:12:42.324Z,6.00
2022-12-23T10:18:28.684Z,5.70
2022-12-23T10:21:42.254Z,3.30
2022-12-23T10:24:37.971Z,5.00
2022-12-23T10:27:32.273Z,5.30
2022-12-23T10:30:54.007Z,3.50
2022-12-23T10:33:36.663Z,6.70
2022-12-23T10:36:41.145Z,4.10
2022-12-23T10:39:42.381Z,3.90
2022-12-23T10:42:34.074Z,17.80
2022-12-23T10:45:41.399Z,12.00
2022-12-23T10:48:40.032Z,3.60
2022-12-23T10:51:34.380Z,2.40
2022-12-23T10:54:31.026Z,5.50
2022-12-23T10:57:18.145Z,4.50
2022-12-23T11:00:17.210Z,3.20
2022-12-23T11:03:13.537Z,5.00
2022-12-23T11:06:00.006Z,3.80
2022-12-23T11:08:46.071Z,2.70
2022-12-23T11:11:54.328Z,1.70
2022-12-23T11:14:41.504Z,2.20
2022-12-23T11:17:29.705Z,1.80
2022-12-23T11:20:17.772Z,2.20
2022-12-23T11:23:06.140Z,2.20
2022-12-23T11:26:13.429Z,3.70
2022-12-23T11:29:07.655Z,2.30
2022-12-23T11:31:54.171Z,2.70
2022-12-23T11:34:40.405Z,4.80
2022-12-23T11:37:47.540Z,6.30
2022-12-23T11:40:36.091Z,1.90
2022-12-23T11:43:23.415Z,3.30
2022-12-23T11:46:35.619Z,5.10
2022-12-23T11:49:31.587Z,5.40
2022-12-23T11:52:19.687Z,6.30
2022-12-23T11:55:07.170Z,3.70
2022-12-23T11:57:53.755Z,5.50
2022-12-23T12:00:41.300Z,4.80
2022-12-23T12:03:30.931Z,3.50
2022-12-23T12:06:17.199Z,4.60
2022-12-23T12:09:03.795Z,3.90
2022-12-23T12:11:55.132Z,7.80
2022-12-23T12:14:46.936Z,4.00
2022-12-23T12:17:40.726Z,2.30
2022-12-23T12:20:44.333Z,4.90
2022-12-23T12:24:08.134Z,3.90
2022-12-23T12:27:01.386Z,2.80
2022-12-23T12:29:55.629Z,3.50
2022-12-23T12:33:01.059Z,3.60
2022-12-23T12:35:53.607Z,5.70
2022-12-23T12:38:40.702Z,5.70
2022-12-23T12:41:34.507Z,9.30
2022-12-23T12:44:32.135Z,4.90
2022-12-23T12:50:34.083Z,4.20
2022-12-23T12:53:21.146Z,6.10
2022-12-23T12:56:12.534Z,3.40
2022-12-23T12:58:58.886Z,4.40
2022-12-23T13:01:53.144Z,4.20
2022-12-23T13:05:03.508Z,4.10
2022-12-23T13:08:08.970Z,3.80
2022-12-23T13:10:57.780Z,5.40
2022-12-23T13:14:26.318Z,3.30
2022-12-23T13:17:21.015Z,4.80
2022-12-23T13:20:19.937Z,4.30
2022-12-23T13:23:42.146Z,7.80
2022-12-23T13:26:40.521Z,5.40
2022-12-23T13:29:42.355Z,1.90
2022-12-23T13:35:23.681Z,4.60
2022-12-23T13:38:50.054Z,5.20
2022-12-23T13:41:40.764Z,5.00
2022-12-23T13:44:28.070Z,4.70
2022-12-23T13:47:21.243Z,3.20
2022-12-23T13:50:12.644Z,4.60
2022-12-23T13:53:16.304Z,5.60
2022-12-23T13:56:11.852Z,5.60
2022-12-23T13:58:58.596Z,22.60
2022-12-23T14:01:47.770Z,17.10
2022-12-23T14:04:59.050Z,10.80
2022-12-23T14:07:45.308Z,10.20
2022-12-23T14:10:32.075Z,8.90
2022-12-23T14:13:18.712Z,3.10
2022-12-23T14:16:11.082Z,3.70
2022-12-23T14:19:12.472Z,11.90
2022-12-23T14:22:11.866Z,16.00
2022-12-23T14:25:29.488Z,13.90
2022-12-23T14:28:26.653Z,10.60
2022-12-23T14:31:29.205Z,8.90
2022-12-23T14:34:18.567Z,23.00
2022-12-23T14:37:24.853Z,23.70
2022-12-23T14:40:39.563Z,33.80
2022-12-23T14:43:27.221Z,36.00
2022-12-23T14:46:43.278Z,38.90
2022-12-23T14:49:41.192Z,19.10
2022-12-23T14:52:48.077Z,19.90
2022-12-23T14:55:40.197Z,16.50
2022-12-23T14:58:30.015Z,19.50
2022-12-23T15:01:37.271Z,19.20
2022-12-23T15:04:26.353Z,23.80
2022-12-23T15:07:27.771Z,28.50
2022-12-23T15:10:22.514Z,17.20
2022-12-23T15:13:11.293Z,7.60
2022-12-23T15:16:01.817Z,7.30
2022-12-23T15:18:55.697Z,8.40
2022-12-23T15:21:44.906Z,7.50
2022-12-23T15:24:33.442Z,5.30
2022-12-23T15:27:28.740Z,3.60
2022-12-23T15:30:16.272Z,5.60
2022-12-23T15:33:21.471Z,5.40
2022-12-23T15:36:12.750Z,5.70
2022-12-23T15:39:00.359Z,5.60
2022-12-23T15:41:47.354Z,6.40
2022-12-23T15:44:36.677Z,5.50
2022-12-23T15:47:30.292Z,6.20
2022-12-23T15:50:17.757Z,3.10
2022-12-23T15:53:05.411Z,5.40
2022-12-23T15:55:51.535Z,5.10
2022-12-23T15:58:39.384Z,6.90
2022-12-23T16:01:26.480Z,6.10
2022-12-23T16:04:18.709Z,7.90
2022-12-23T16:07:05.315Z,8.70
2022-12-23T16:09:53.688Z,7.80
2022-12-23T16:12:40.005Z,6.60
2022-12-23T16:15:27.565Z,4.70
2022-12-23T16:18:19.572Z,6.90
2022-12-23T16:21:06.189Z,5.30
2022-12-23T16:23:52.506Z,6.00
2022-12-23T16:27:01.299Z,5.60
2022-12-23T16:30:07.730Z,6.90
2022-12-23T16:32:55.625Z,12.60
2022-12-23T16:35:42.775Z,6.60
2022-12-23T16:38:29.094Z,7.50
2022-12-23T16:41:15.500Z,8.10
2022-12-23T16:44:01.881Z,11.10
2022-12-23T16:46:49.313Z,10.40
2022-12-23T16:49:35.948Z,8.20
2022-12-23T16:52:22.605Z,8.70
2022-12-23T16:55:14.655Z,9.80
2022-12-23T16:58:00.937Z,21.00
2022-12-23T17:00:47.519Z,19.00
2022-12-23T17:03:33.741Z,20.30
2022-12-23T17:06:20.085Z,26.70
2022-12-23T17:09:07.177Z,29.70
2022-12-23T17:11:53.843Z,36.00
2022-12-23T17:14:40.391Z,34.70
2022-12-23T17:17:26.997Z,49.40
2022-12-23T17:20:13.076Z,46.00
2022-12-23T17:22:59.379Z,43.70
2022-12-23T17:25:45.996Z,18.50
2022-12-23T17:28:32.580Z,14.50
2022-12-23T17:31:26.250Z,19.80
2022-12-23T17:34:17.569Z,21.40
2022-12-23T17:37:11.974Z,18.20
2022-12-23T17:39:58.246Z,33.60
2022-12-23T17:42:44.641Z,26.20
2022-12-23T17:45:31.928Z,24.60
2022-12-23T17:48:23.101Z,24.90
2022-12-23T17:51:15.528Z,41.40
2022-12-23T17:54:02.235Z,36.30
2022-12-23T17:56:48.621Z,45.60
2022-12-23T17:59:35.217Z,46.40
2022-12-23T18:02:26.650Z,41.40
2022-12-23T18:05:25.968Z,40.70
2022-12-23T18:08:12.750Z,35.70
2022-12-23T18:10:59.411Z,47.00
2022-12-23T18:13:47.139Z,50.70
2022-12-23T18:16:33.675Z,47.90
2022-12-23T18:19:20.550Z,28.10
2022-12-23T18:22:06.859Z,46.70
2022-12-23T18:24:58.937Z,40.00
2022-12-23T18:27:45.920Z,30.60
2022-12-23T18:30:32.159Z,22.70
2022-12-23T18:33:18.340Z,22.30
2022-12-23T18:36:05.189Z,25.20
2022-12-23T18:38:52.636Z,25.20
2022-12-23T18:41:40.055Z,22.00
2022-12-23T18:44:26.766Z,111.20
2022-12-23T18:47:13.065Z,110.20
2022-12-23T18:49:59.654Z,60.30
2022-12-23T18:52:46.707Z,45.80
2022-12-23T18:55:33.419Z,46.70
2022-12-23T18:58:19.617Z,44.80
2022-12-23T19:01:06.026Z,52.90
2022-12-23T19:03:52.421Z,58.10
2022-12-23T19:06:39.147Z,51.50
2022-12-23T19:09:25.382Z,51.20
2022-12-23T19:12:12.091Z,57.10
2022-12-23T19:14:58.623Z,47.50
2022-12-23T19:17:45.046Z,36.80
2022-12-23T19:20:31.270Z,42.40
2022-12-23T19:23:17.862Z,54.00
2022-12-23T19:26:06.301Z,34.10
2022-12-23T19:28:52.630Z,26.90
2022-12-23T19:31:39.539Z,17.80
2022-12-23T19:34:26.027Z,16.10
2022-12-23T19:37:12.520Z,16.50
2022-12-23T19:39:59.400Z,18.50
2022-12-23T19:42:45.921Z,19.50
2022-12-23T19:45:32.450Z,30.60
2022-12-23T19:48:18.941Z,30.10
2022-12-23T19:51:07.874Z,31.70
2022-12-23T19:53:54.374Z,32.40
2022-12-23T19:56:40.734Z,43.50
2022-12-23T19:59:27.423Z,30.50
2022-12-23T20:02:15.500Z,31.50
2022-12-23T20:05:01.744Z,31.60
2022-12-23T20:07:47.888Z,28.40
2022-12-23T20:10:34.122Z,30.90
2022-12-23T20:13:20.348Z,26.50
2022-12-23T20:16:07.096Z,25.10
2022-12-23T20:18:53.567Z,27.40
2022-12-23T20:21:40.176Z,32.60
2022-12-23T20:24:26.732Z,28.40
2022-12-23T20:27:15.739Z,23.90
2022-12-23T20:30:02.577Z,26.20
2022-12-23T20:32:48.947Z,27.00
2022-12-23T20:35:36.332Z,28.00
2022-12-23T20:38:22.938Z,25.60
2022-12-23T20:41:10.980Z,28.10
2022-12-23T20:44:32.485Z,31.60
2022-12-23T20:47:07.070Z,26.00
2022-12-23T20:49:53.564Z,23.40
2022-12-23T20:52:39.932Z,27.40
2022-12-23T20:55:26.230Z,26.10
2022-12-23T20:58:31.275Z,22.70
2022-12-23T21:01:17.770Z,28.10
2022-12-23T21:04:15.948Z,26.00
2022-12-23T21:07:02.315Z,25.50
2022-12-23T21:09:48.448Z,26.50
2022-12-23T21:12:34.676Z,30.10
2022-12-23T21:15:22.824Z,29.20
2022-12-23T21:18:09.174Z,24.90
2022-12-23T21:20:59.927Z,26.20
2022-12-23T21:23:46.709Z,24.80
2022-12-23T21:26:34.161Z,24.40
2022-12-23T21:29:20.667Z,29.40
2022-12-23T21:32:07.038Z,25.50
2022-12-23T21:34:53.640Z,25.30
2022-12-23T21:37:40.104Z,24.60
2022-12-23T21:40:27.174Z,25.20
2022-12-23T21:43:13.654Z,25.80
2022-12-23T21:46:04.568Z,23.40
2022-12-23T21:48:51.020Z,27.10
2022-12-23T21:51:40.684Z,33.70
2022-12-23T21:54:27.461Z,26.10
2022-12-23T21:57:13.959Z,27.00
2022-12-23T22:00:00.350Z,30.40
2022-12-23T22:02:46.999Z,23.20
2022-12-23T22:05:33.190Z,24.60
2022-12-23T22:08:19.734Z,28.10
2022-12-23T22:11:07.591Z,33.40
2022-12-23T22:13:55.134Z,34.40
2022-12-23T22:16:41.615Z,31.80
2022-12-23T22:19:28.018Z,29.90
2022-12-23T22:22:14.411Z,36.80
2022-12-23T22:25:00.564Z,26.40
2022-12-23T22:27:47.177Z,19.10
2022-12-23T22:30:33.265Z,32.20
2022-12-23T22:33:21.169Z,22.90
2022-12-23T22:36:09.413Z,19.60
2022-12-23T22:38:57.407Z,12.30
2022-12-23T22:41:43.918Z,20.00
2022-12-23T22:44:30.160Z,21.10
2022-12-23T22:47:16.333Z,22.20
2022-12-23T22:50:03.047Z,21.60
2022-12-23T22:52:49.313Z,24.20
2022-12-23T22:55:35.311Z,17.40
2022-12-23T22:58:21.752Z,18.60
2022-12-23T23:01:13.065Z,17.70
2022-12-23T23:04:00.818Z,20.30
2022-12-23T23:06:47.186Z,22.20
2022-12-23T23:09:34.090Z,19.20
2022-12-23T23:12:20.605Z,18.90
2022-12-23T23:15:07.725Z,18.30
2022-12-23T23:17:55.362Z,15.90
2022-12-23T23:20:42.039Z,15.60
2022-12-23T23:23:28.340Z,10.00
2022-12-23T23:26:15.107Z,15.00
2022-12-23T23:29:01.543Z,14.50
2022-12-23T23:31:47.940Z,16.10
2022-12-23T23:34:34.718Z,13.00
2022-12-23T23:37:21.447Z,14.00
2022-12-23T23:40:08.245Z,11.40
2022-12-23T23:42:54.847Z,13.40
2022-12-23T23:45:41.420Z,17.70
2022-12-23T23:48:27.609Z,15.70
2022-12-23T23:51:14.035Z,25.00
2022-12-23T23:54:00.652Z,18.90
2022-12-23T23:56:46.810Z,19.80
2022-12-23T23:59:33.253Z,15.70
